Time;durP1;ratioP1;P1;durP2;ratioP2;P2;SDS_P1;SDS_P2;PMS_P1;PMS_P2;Temp;Humidity;BMP_temperature;BMP_pressure;BME280_temperature;BME280_humidity;BME280_pressure;Samples;Min_cycle;Max_cycle;Signal;HPM_P1;HPM_P2
2021/12/03 00:01:24;;;;;;;;;5.75;5.75;;;;;21.46;36.65;101389.75;5008524;28;45300;-72
2021/12/03 00:03:50;;;;;;;;;8.00;5.25;;;;;21.47;36.75;101408.09;4999436;28;45603;-72
2021/12/03 00:06:16;;;;;;;;;4.00;4.00;;;;;21.47;36.87;101391.38;4997550;28;45590;-72
2021/12/03 00:08:42;;;;;;;;;5.00;4.00;;;;;21.45;36.64;101402.13;4997823;28;45910;-72
2021/12/03 00:11:10;;;;;;;;;5.75;5.50;;;;;21.46;36.79;101406.47;4993957;28;45216;-72
2021/12/03 00:13:37;;;;;;;;;7.25;4.00;;;;;21.46;37.18;101408.28;4996533;28;45539;-71
2021/12/03 00:16:03;;;;;;;;;5.75;4.25;;;;;21.45;36.62;101403.94;5006800;28;45531;-73
2021/12/03 00:18:29;;;;;;;;;5.75;5.75;;;;;21.44;36.89;101408.44;5006056;28;45543;-72
2021/12/03 00:20:55;;;;;;;;;3.25;3.25;;;;;21.45;36.57;101418.03;5023449;28;45665;-72
2021/12/03 00:23:22;;;;;;;;;6.00;5.00;;;;;21.45;36.48;101398.66;5030473;28;45495;-72
2021/12/03 00:25:47;;;;;;;;;5.25;4.75;;;;;21.42;36.34;101393.72;5030893;28;45400;-72
2021/12/03 00:28:13;;;;;;;;;4.75;4.25;;;;;21.42;36.54;101399.00;5032447;28;46253;-72
2021/12/03 00:30:38;;;;;;;;;5.75;5.75;;;;;21.38;36.27;101399.31;5028983;28;45370;-73
2021/12/03 00:33:07;;;;;;;;;5.75;4.25;;;;;21.40;36.69;101391.22;5030334;28;45492;-72
2021/12/03 00:35:32;;;;;;;;;7.25;5.75;;;;;21.40;36.79;101388.56;5030332;28;45465;-72
2021/12/03 00:37:58;;;;;;;;;7.75;5.00;;;;;21.39;36.28;101392.22;5030009;28;47046;-72
2021/12/03 00:40:30;;;;;;;;;5.00;5.00;;;;;21.42;36.63;101404.31;5032270;27;45386;-72
2021/12/03 00:42:57;;;;;;;;;5.00;4.00;;;;;21.42;36.26;101409.59;5028617;28;45552;-72
2021/12/03 00:45:23;;;;;;;;;5.75;5.75;;;;;21.40;36.43;101399.16;5021793;28;45574;-73
2021/12/03 00:47:48;;;;;;;;;7.00;5.75;;;;;21.39;36.60;101392.22;5029429;28;46192;-72
2021/12/03 00:50:18;;;;;;;;;4.75;3.75;;;;;21.39;36.61;101393.03;5030102;27;45530;-72
2021/12/03 00:52:44;;;;;;;;;5.00;4.75;;;;;21.38;36.33;101401.97;5031184;28;45436;-73
2021/12/03 00:55:09;;;;;;;;;6.00;6.00;;;;;21.37;36.45;101410.88;5031111;28;45448;-72
2021/12/03 00:57:36;;;;;;;;;5.50;5.00;;;;;21.38;36.25;101404.63;5030955;28;46918;-72
2021/12/03 01:00:08;;;;;;;;;5.00;5.00;;;;;21.38;36.02;101411.72;5032814;28;45476;-72
2021/12/03 01:02:33;;;;;;;;;5.50;5.50;;;;;21.37;36.36;101415.34;5032852;27;45583;-72
2021/12/03 01:04:59;;;;;;;;;7.00;6.00;;;;;21.35;36.25;101409.41;5033043;28;45420;-72
2021/12/03 01:07:24;;;;;;;;;4.75;4.75;;;;;21.37;36.37;101410.06;5034741;28;47188;-72
2021/12/03 01:09:49;;;;;;;;;6.00;6.00;;;;;21.37;36.16;101418.00;5031794;28;45571;-72
2021/12/03 01:12:15;;;;;;;;;6.00;6.00;;;;;21.39;36.17;101426.63;5032896;28;45595;-72
2021/12/03 01:14:41;;;;;;;;;7.00;6.25;;;;;21.36;36.31;101411.91;5032723;28;45431;-73
2021/12/03 01:17:07;;;;;;;;;6.75;5.75;;;;;21.38;35.76;101414.38;5032429;28;46377;-72
2021/12/03 01:19:33;;;;;;;;;6.25;6.25;;;;;21.37;36.21;101410.06;5034551;27;45494;-72
2021/12/03 01:21:58;;;;;;;;;6.00;6.00;;;;;21.37;35.69;101410.06;5031364;27;45397;-72
2021/12/03 01:24:24;;;;;;;;;10.00;6.25;;;;;21.38;36.05;101417.03;5101621;27;45391;-72
2021/12/03 01:26:54;;;;;;;;;7.00;7.00;;;;;21.37;36.03;101400.31;5032369;28;47265;-72
2021/12/03 01:29:20;;;;;;;;;6.25;6.25;;;;;21.38;35.96;101403.78;5032642;28;45320;-72
2021/12/03 01:31:45;;;;;;;;;5.50;5.50;;;;;21.36;35.70;101390.72;5033134;28;45311;-72
2021/12/03 01:34:10;;;;;;;;;9.00;7.25;;;;;21.34;36.04;101390.03;5033878;28;45367;-71
2021/12/03 01:36:36;;;;;;;;;6.00;6.00;;;;;21.36;35.96;101393.38;5032349;28;45504;-72
2021/12/03 01:39:02;;;;;;;;;6.00;6.00;;;;;21.34;35.53;101384.75;5032484;28;45351;-72
2021/12/03 01:41:28;;;;;;;;;6.00;6.00;;;;;21.36;35.99;101389.88;5032754;28;45369;-73
2021/12/03 01:44:02;;;;;;;;;8.00;6.00;;;;;21.36;35.78;101388.06;5032632;28;45396;-72
2021/12/03 01:46:28;;;;;;;;;7.25;7.25;;;;;21.35;36.09;101382.94;5034120;27;46209;-73
2021/12/03 01:48:53;;;;;;;;;7.75;6.25;;;;;21.33;35.91;101383.09;5030987;27;45452;-72
2021/12/03 01:51:19;;;;;;;;;7.50;6.50;;;;;21.35;35.66;101388.22;5032466;28;45400;-72
2021/12/03 01:53:45;;;;;;;;;7.25;5.75;;;;;21.33;35.59;101387.56;5032492;27;45541;-72
2021/12/03 01:56:13;;;;;;;;;6.00;4.25;;;;;21.34;35.93;101381.28;5032422;28;45492;-72
2021/12/03 01:58:40;;;;;;;;;6.00;6.00;;;;;21.34;35.86;101381.28;5034082;28;45393;-73
2021/12/03 02:01:09;;;;;;;;;8.00;6.75;;;;;21.32;35.82;101370.84;5031432;28;45507;-72
2021/12/03 02:03:38;;;;;;;;;6.50;6.50;;;;;21.32;35.85;101375.31;5043095;28;45434;-73
2021/12/03 02:06:06;;;;;;;;;6.00;5.50;;;;;21.32;35.57;101388.53;5032020;28;45479;-72
2021/12/03 02:08:31;;;;;;;;;6.00;6.00;;;;;21.29;35.64;101385.22;5031773;27;45478;-72
2021/12/03 02:10:57;;;;;;;;;7.00;7.00;;;;;21.31;35.67;101386.91;5032246;28;45545;-72
2021/12/03 02:13:22;;;;;;;;;9.25;6.00;;;;;21.29;35.96;101385.22;5034407;28;45399;-72
2021/12/03 02:15:49;;;;;;;;;5.00;5.00;;;;;21.29;35.81;101382.59;5031547;28;45431;-72
2021/12/03 02:18:16;;;;;;;;;6.25;6.00;;;;;21.28;35.58;101372.16;5032033;27;45440;-72
2021/12/03 02:20:49;;;;;;;;;8.00;6.25;;;;;21.29;35.35;101374.66;5031954;27;45555;-72
2021/12/03 02:23:16;;;;;;;;;7.25;5.25;;;;;21.29;35.40;101379.94;5032033;28;45580;-72
2021/12/03 02:25:42;;;;;;;;;5.50;5.50;;;;;21.29;35.91;101373.81;5033071;28;45517;-72
2021/12/03 02:28:09;;;;;;;;;7.50;6.75;;;;;21.29;35.96;101372.00;5033758;28;45220;-72
2021/12/03 02:30:34;;;;;;;;;7.25;7.00;;;;;21.27;35.65;101367.84;5031610;27;45502;-72
2021/12/03 02:33:00;;;;;;;;;9.50;6.25;;;;;21.28;35.97;101366.88;5030337;27;45551;-72
2021/12/03 02:35:26;;;;;;;;;5.50;5.50;;;;;21.28;36.03;101353.66;5031767;27;46025;-72
2021/12/03 02:37:52;;;;;;;;;6.50;6.00;;;;;21.28;35.95;101356.28;5032400;28;45413;-72
2021/12/03 02:40:20;;;;;;;;;10.50;8.00;;;;;21.24;35.59;101347.84;5032246;28;45421;-72
2021/12/03 02:42:46;;;;;;;;;8.00;5.50;;;;;21.26;35.57;101345.03;5031706;28;45472;-72
2021/12/03 02:45:14;;;;;;;;;10.25;7.00;;;;;21.26;35.73;101340.56;5031289;28;45744;-72
2021/12/03 02:47:40;;;;;;;;;8.50;6.75;;;;;21.25;35.57;101344.22;5031370;28;45393;-73
2021/12/03 02:50:08;;;;;;;;;8.25;8.00;;;;;21.24;35.66;101334.59;5031954;28;45516;-72
2021/12/03 02:52:33;;;;;;;;;5.50;5.50;;;;;21.23;35.52;101324.19;5029884;28;45453;-73
2021/12/03 02:54:59;;;;;;;;;7.00;6.25;;;;;21.26;35.66;101321.22;5031441;28;45379;-72
2021/12/03 02:57:25;;;;;;;;;7.00;7.00;;;;;21.25;35.94;101315.09;5031667;27;45368;-72
2021/12/03 02:59:51;;;;;;;;;9.00;9.00;;;;;21.25;35.52;101316.91;5031235;28;45502;-72
2021/12/03 03:02:17;;;;;;;;;7.75;7.00;;;;;21.26;35.83;101321.22;5031667;27;45616;-72
2021/12/03 03:04:42;;;;;;;;;7.25;7.25;;;;;21.26;35.62;101308.81;5031837;28;46393;-72
2021/12/03 03:07:08;;;;;;;;;9.75;8.00;;;;;21.26;35.50;101313.28;5031087;28;45302;-72
2021/12/03 03:09:34;;;;;;;;;8.25;7.00;;;;;21.26;35.48;101308.00;5031501;28;45336;-72
2021/12/03 03:11:59;;;;;;;;;6.00;5.25;;;;;21.27;35.51;101321.06;5031282;28;45409;-72
2021/12/03 03:14:26;;;;;;;;;7.00;6.50;;;;;21.27;35.63;101318.41;5031055;28;45494;-72
2021/12/03 03:16:52;;;;;;;;;6.25;3.25;;;;;21.25;35.80;101308.97;5031927;28;45350;-72
2021/12/03 03:19:21;;;;;;;;;7.00;6.25;;;;;21.28;35.61;101309.50;5031930;27;45320;-72
2021/12/03 03:21:47;;;;;;;;;6.75;5.75;;;;;21.26;35.50;101308.00;5031012;27;45616;-72
2021/12/03 03:24:14;;;;;;;;;8.75;7.00;;;;;21.26;35.62;101311.44;5030852;28;45989;-72
2021/12/03 03:26:42;;;;;;;;;8.25;7.25;;;;;21.27;35.18;101317.56;5012326;27;45432;-72
2021/12/03 03:29:11;;;;;;;;;9.50;9.00;;;;;21.26;35.57;101306.16;5030893;28;45491;-72
2021/12/03 03:31:38;;;;;;;;;7.75;6.00;;;;;21.27;35.24;101307.81;5032737;28;45525;-72
2021/12/03 03:34:06;;;;;;;;;7.50;7.00;;;;;21.27;35.34;101294.59;5030683;28;45463;-72
2021/12/03 03:36:42;;;;;;;;;6.25;6.25;;;;;21.27;35.58;101291.09;5030917;28;45428;-72
2021/12/03 03:39:12;;;;;;;;;8.50;7.50;;;;;21.24;35.29;101281.69;5031045;28;45478;-72
2021/12/03 03:41:38;;;;;;;;;8.75;5.75;;;;;21.26;35.54;101279.69;5030606;28;45500;-71
2021/12/03 03:44:04;;;;;;;;;6.25;6.00;;;;;21.23;35.49;101277.41;5014203;28;46210;-72
2021/12/03 03:46:30;;;;;;;;;5.50;5.50;;;;;21.23;35.19;101277.41;5032864;28;45360;-72
2021/12/03 03:48:56;;;;;;;;;10.00;8.00;;;;;21.25;35.36;101279.88;5030749;27;45375;-72
2021/12/03 03:51:22;;;;;;;;;8.00;7.00;;;;;21.22;35.19;101269.59;5030951;27;45595;-72
2021/12/03 03:53:47;;;;;;;;;7.75;6.75;;;;;21.21;35.24;101263.47;5030635;28;45940;-72
2021/12/03 03:56:13;;;;;;;;;6.75;6.00;;;;;21.18;35.52;101251.41;5029210;28;45402;-73
2021/12/03 03:58:41;;;;;;;;;11.00;6.25;;;;;21.22;35.52;101251.06;5032426;28;45335;-72
2021/12/03 04:01:08;;;;;;;;;8.00;5.25;;;;;21.22;35.36;101253.72;5031515;28;45501;-73
2021/12/03 04:03:34;;;;;;;;;6.75;6.75;;;;;21.20;35.37;101253.91;5030482;28;45442;-72
2021/12/03 04:05:59;;;;;;;;;6.00;6.00;;;;;21.21;35.39;101255.53;5030726;27;45396;-72
2021/12/03 04:08:28;;;;;;;;;9.25;5.50;;;;;21.18;35.36;101261.19;5030986;27;45500;-72
2021/12/03 04:10:58;;;;;;;;;7.50;6.50;;;;;21.20;35.12;101266.31;5030382;28;45296;-72
2021/12/03 04:13:24;;;;;;;;;7.00;7.00;;;;;21.20;35.45;101261.84;5032457;28;45426;-72
2021/12/03 04:15:49;;;;;;;;;8.00;7.00;;;;;21.18;35.46;101248.75;5030479;27;45592;-72
2021/12/03 04:18:15;;;;;;;;;9.00;6.00;;;;;21.18;35.48;101240.81;5030456;28;45551;-72
2021/12/03 04:20:40;;;;;;;;;6.00;4.75;;;;;21.20;35.44;101245.13;5030438;27;45320;-72
2021/12/03 04:23:06;;;;;;;;;10.00;10.00;;;;;21.20;35.44;101251.25;5029451;28;46032;-72
2021/12/03 04:25:33;;;;;;;;;6.50;6.50;;;;;21.20;35.15;101245.13;5043250;28;45372;-72
2021/12/03 04:27:58;;;;;;;;;7.25;5.75;;;;;21.18;35.20;101250.59;5030436;28;45409;-72
2021/12/03 04:30:26;;;;;;;;;5.00;5.00;;;;;21.19;35.18;101252.22;5030313;28;45469;-72
2021/12/03 04:32:53;;;;;;;;;10.00;8.50;;;;;21.19;35.31;101246.94;5031567;28;45506;-72
2021/12/03 04:35:18;;;;;;;;;10.50;7.25;;;;;21.18;35.08;101240.00;5014003;27;45469;-72
2021/12/03 04:37:44;;;;;;;;;9.50;7.75;;;;;21.18;35.14;101240.00;5034211;28;45324;-72
2021/12/03 04:40:14;;;;;;;;;6.75;6.75;;;;;21.18;35.29;101229.44;5034292;28;45412;-72
2021/12/03 04:42:40;;;;;;;;;6.50;6.50;;;;;21.17;34.94;101217.19;5033159;28;45471;-72
2021/12/03 04:45:08;;;;;;;;;6.25;5.00;;;;;21.18;35.08;101218.84;5032977;27;45421;-72
2021/12/03 04:47:33;;;;;;;;;6.75;6.75;;;;;21.18;35.36;101221.50;5033272;27;45248;-72
2021/12/03 04:49:59;;;;;;;;;6.00;6.00;;;;;21.18;35.05;101218.84;5033177;28;45472;-72
2021/12/03 04:52:25;;;;;;;;;5.25;5.25;;;;;21.20;35.41;101216.03;5035394;28;45434;-72
2021/12/03 04:54:50;;;;;;;;;6.25;6.25;;;;;21.20;35.56;101205.44;5032743;28;45350;-72
2021/12/03 04:57:16;;;;;;;;;7.25;5.75;;;;;21.20;34.83;101198.34;5033140;28;45400;-72
2021/12/03 04:59:41;;;;;;;;;6.00;6.00;;;;;21.21;35.12;101199.16;5032994;28;45515;-72
2021/12/03 05:02:07;;;;;;;;;7.00;6.00;;;;;21.18;35.28;101179.97;5031826;28;45492;-71
2021/12/03 05:04:37;;;;;;;;;6.00;6.00;;;;;21.20;35.14;101187.75;5035291;28;45520;-72
2021/12/03 05:09:35;;;;;;;;;7.00;7.00;;;;;21.21;35.01;101181.44;5032628;28;45427;-72
2021/12/03 05:12:02;;;;;;;;;8.00;8.00;;;;;21.19;34.91;101178.16;5032633;27;45292;-72
2021/12/03 05:14:28;;;;;;;;;6.00;6.00;;;;;21.21;34.89;101175.34;5031512;28;45290;-72
2021/12/03 05:16:53;;;;;;;;;7.25;6.75;;;;;21.21;34.82;101170.06;5032927;28;45173;-72
2021/12/03 05:19:18;;;;;;;;;7.25;7.25;;;;;21.18;35.20;101161.44;5034744;27;45317;-71
2021/12/03 05:21:45;;;;;;;;;7.50;6.75;;;;;21.20;35.24;101163.09;5033003;28;45816;-72
2021/12/03 05:24:11;;;;;;;;;8.75;7.00;;;;;21.19;35.27;101159.63;5043413;28;45394;-72
2021/12/03 05:26:38;;;;;;;;;8.75;6.00;;;;;21.19;34.96;101154.31;5032746;28;45478;-72
2021/12/03 05:29:06;;;;;;;;;6.50;5.25;;;;;21.20;34.93;101145.41;5017024;28;45375;-72
2021/12/03 05:31:32;;;;;;;;;8.00;6.25;;;;;21.20;34.94;101136.63;5030352;27;47116;-72
2021/12/03 05:33:58;;;;;;;;;6.00;6.00;;;;;21.20;35.02;101144.56;5032546;28;45264;-72
2021/12/03 05:36:24;;;;;;;;;7.25;6.00;;;;;21.19;35.22;101151.69;5032840;27;45496;-72
2021/12/03 05:38:50;;;;;;;;;7.25;5.75;;;;;21.16;35.01;101134.31;5032104;28;45423;-71
2021/12/03 05:41:16;;;;;;;;;3.00;2.25;;;;;21.19;35.27;101141.09;5031361;28;47072;-72
2021/12/03 05:43:42;;;;;;;;;6.00;5.00;;;;;21.19;34.82;101151.69;5033380;28;45300;-73
2021/12/03 05:46:07;;;;;;;;;9.25;5.50;;;;;21.18;35.01;101139.47;5033105;28;45399;-73
2021/12/03 05:48:33;;;;;;;;;5.75;5.25;;;;;21.17;35.14;101138.63;5032430;28;45343;-72
2021/12/03 05:50:58;;;;;;;;;4.00;4.00;;;;;21.19;34.98;101133.16;5032300;28;46325;-72
2021/12/03 05:53:25;;;;;;;;;7.25;6.00;;;;;21.16;34.95;101125.53;5030612;28;45460;-72
2021/12/03 05:55:50;;;;;;;;;7.50;5.00;;;;;21.17;34.87;101130.69;5032553;28;45264;-72
2021/12/03 05:58:17;;;;;;;;;8.00;6.75;;;;;21.17;34.76;101130.69;5034390;28;45279;-72
2021/12/03 06:00:44;;;;;;;;;7.00;6.00;;;;;21.20;35.05;101134.00;5032115;27;46085;-72
2021/12/03 06:03:09;;;;;;;;;4.00;3.50;;;;;21.21;35.08;101143.59;5031940;28;45448;-73
2021/12/03 06:05:36;;;;;;;;;7.00;6.75;;;;;21.19;34.91;101143.75;5032365;28;45438;-72
2021/12/03 06:08:02;;;;;;;;;4.50;4.50;;;;;21.18;34.88;101139.47;5031918;28;45397;-72
2021/12/03 06:10:28;;;;;;;;;4.50;4.50;;;;;21.21;34.88;101141.75;5034142;27;46465;-72
2021/12/03 06:12:53;;;;;;;;;6.00;5.50;;;;;21.18;35.20;101136.81;5031886;27;45508;-72
2021/12/03 06:15:19;;;;;;;;;5.25;5.00;;;;;21.21;35.06;101144.41;5032168;28;45587;-72
2021/12/03 06:17:45;;;;;;;;;6.00;5.00;;;;;21.21;34.77;101139.09;5032108;28;45194;-72
2021/12/03 06:20:12;;;;;;;;;6.00;6.00;;;;;21.21;35.14;101133.00;5030648;27;46422;-71
2021/12/03 06:22:39;;;;;;;;;5.75;5.00;;;;;21.21;34.73;101144.41;5033233;27;45416;-72
2021/12/03 06:25:07;;;;;;;;;4.75;4.75;;;;;21.22;35.00;101140.75;5031591;28;45561;-72
2021/12/03 06:27:32;;;;;;;;;4.00;4.00;;;;;21.20;34.64;101141.94;5031770;28;45341;-72
2021/12/03 06:29:59;;;;;;;;;5.00;5.00;;;;;21.22;34.79;101137.28;5031598;28;46087;-72
2021/12/03 06:32:24;;;;;;;;;6.50;4.75;;;;;21.20;35.10;101131.34;5030680;28;45496;-72
2021/12/03 06:34:51;;;;;;;;;4.75;4.75;;;;;21.23;34.73;101136.31;5032053;28;45297;-72
2021/12/03 06:37:16;;;;;;;;;7.25;5.25;;;;;21.22;34.80;101126.69;5033667;28;45350;-72
2021/12/03 06:39:42;;;;;;;;;4.50;4.50;;;;;21.20;34.84;101126.88;5031483;28;46190;-72
2021/12/03 06:42:07;;;;;;;;;4.50;3.50;;;;;21.23;34.89;101131.00;5031668;28;45339;-72
2021/12/03 06:44:33;;;;;;;;;4.00;4.00;;;;;21.25;34.73;101121.09;5031889;28;45590;-72
2021/12/03 06:47:01;;;;;;;;;4.75;4.75;;;;;21.21;35.08;101112.66;5031827;28;45227;-72
2021/12/03 06:49:29;;;;;;;;;5.50;3.75;;;;;21.17;35.02;101100.75;5033412;28;46181;-72
2021/12/03 06:51:59;;;;;;;;;6.25;5.00;;;;;21.16;34.68;101099.09;5031159;28;45449;-72
2021/12/03 06:54:28;;;;;;;;;6.50;4.25;;;;;21.24;34.58;101106.19;5030566;27;45508;-72
2021/12/03 06:56:53;;;;;;;;;6.00;4.00;;;;;21.28;34.90;101107.53;5031383;28;45380;-72
2021/12/03 06:59:20;;;;;;;;;4.25;3.75;;;;;21.27;34.77;101106.69;5030383;27;46929;-72
2021/12/03 07:01:46;;;;;;;;;3.75;3.75;;;;;21.28;35.17;101103.06;5032181;28;45588;-72
2021/12/03 07:04:12;;;;;;;;;4.75;4.00;;;;;21.26;34.82;101098.94;5032826;28;45363;-72
2021/12/03 07:06:39;;;;;;;;;5.00;3.00;;;;;21.30;34.61;101097.59;5012946;28;45308;-72
2021/12/03 07:09:05;;;;;;;;;4.00;4.00;;;;;21.31;34.79;101090.47;5031249;28;46578;-72
2021/12/03 07:11:31;;;;;;;;;5.25;5.25;;;;;21.31;34.77;101090.47;5029973;27;45493;-72
2021/12/03 07:13:57;;;;;;;;;5.50;4.50;;;;;21.31;34.57;101087.84;5031291;27;45315;-72
2021/12/03 07:16:23;;;;;;;;;7.75;7.00;;;;;21.28;34.88;101071.31;5033686;28;45519;-72
2021/12/03 07:18:49;;;;;;;;;6.00;4.00;;;;;21.32;34.86;101070.94;5031193;28;45430;-72
2021/12/03 07:21:15;;;;;;;;;5.50;5.00;;;;;21.33;34.83;101069.97;5030745;27;45358;-72
2021/12/03 07:23:40;;;;;;;;;5.00;4.25;;;;;21.34;34.70;101074.25;5031337;28;45495;-72
2021/12/03 07:26:06;;;;;;;;;4.75;3.00;;;;;21.33;34.56;101078.72;5031389;27;45478;-72
2021/12/03 07:28:32;;;;;;;;;3.25;2.50;;;;;21.33;34.71;101070.78;5033370;28;46141;-76
2021/12/03 07:30:58;;;;;;;;;4.00;4.00;;;;;21.27;34.71;101058.22;5031046;27;45505;-71
2021/12/03 07:33:24;;;;;;;;;6.25;5.00;;;;;21.32;34.84;101061.19;5024932;28;45271;-70
2021/12/03 07:35:50;;;;;;;;;5.50;4.00;;;;;21.34;34.72;101066.31;5029806;28;45566;-70
2021/12/03 07:38:17;;;;;;;;;4.50;3.75;;;;;21.36;34.82;101057.22;5029676;28;46001;-70
2021/12/03 07:40:44;;;;;;;;;4.00;4.00;;;;;21.35;34.92;101058.22;5032346;28;45420;-70
2021/12/03 07:43:09;;;;;;;;;5.25;4.00;;;;;21.34;34.60;101061.84;5032294;28;45480;-70
2021/12/03 07:45:36;;;;;;;;;4.25;3.50;;;;;21.37;34.98;101052.72;5030425;28;45358;-70
2021/12/03 07:48:01;;;;;;;;;4.00;4.00;;;;;21.37;35.19;101052.72;5030425;28;46554;-70
2021/12/03 07:50:27;;;;;;;;;2.00;2.00;;;;;21.37;35.34;101050.91;5028092;28;45567;-71
2021/12/03 07:52:52;;;;;;;;;6.75;5.75;;;;;21.29;35.31;101024.47;5068097;27;45527;-73
2021/12/03 07:55:18;;;;;;;;;5.00;4.75;;;;;21.32;35.52;101020.66;5082821;27;45349;-73
2021/12/03 07:57:43;;;;;;;;;3.00;3.00;;;;;21.37;35.23;101032.38;5079794;27;46059;-73
2021/12/03 08:00:09;;;;;;;;;4.00;4.00;;;;;21.38;35.07;101038.50;5079382;27;45556;-73
2021/12/03 08:02:34;;;;;;;;;3.25;3.25;;;;;21.38;34.97;101033.22;5030770;28;45502;-74
2021/12/03 08:05:00;;;;;;;;;3.75;2.75;;;;;21.37;35.12;101047.44;5030483;28;45544;-72
2021/12/03 08:07:26;;;;;;;;;5.25;5.00;;;;;21.38;34.93;101041.16;5030338;28;45418;-70
2021/12/03 08:09:51;;;;;;;;;3.75;3.00;;;;;21.38;35.47;101033.22;5028452;28;45459;-70
2021/12/03 08:12:17;;;;;;;;;4.25;3.00;;;;;21.38;34.95;101025.28;5030267;28;45341;-70
2021/12/03 08:14:42;;;;;;;;;4.25;2.75;;;;;21.36;35.01;101014.88;5030300;28;45427;-70
2021/12/03 08:17:08;;;;;;;;;3.00;3.00;;;;;21.37;35.28;101013.84;5028959;28;46141;-69
2021/12/03 08:19:34;;;;;;;;;3.00;3.00;;;;;21.37;34.96;101005.91;5032477;28;45393;-70
2021/12/03 08:21:59;;;;;;;;;2.00;2.00;;;;;21.37;35.30;101005.09;5030411;28;45385;-70
2021/12/03 08:24:25;;;;;;;;;3.00;3.00;;;;;21.38;35.19;101009.41;5030392;28;45480;-70
2021/12/03 08:26:50;;;;;;;;;3.00;2.75;;;;;21.37;35.55;101005.91;5030032;28;47114;-70
2021/12/03 08:29:15;;;;;;;;;4.50;4.50;;;;;21.37;35.15;101002.44;5028797;28;45328;-70
2021/12/03 08:31:41;;;;;;;;;4.50;3.00;;;;;21.37;35.11;100995.31;5031267;28;45328;-70
2021/12/03 08:34:07;;;;;;;;;3.00;3.00;;;;;21.37;35.18;100994.50;5030718;28;45547;-70
2021/12/03 08:36:32;;;;;;;;;5.00;2.50;;;;;21.37;35.26;100992.69;5029920;28;46274;-70
2021/12/03 08:38:57;;;;;;;;;3.00;3.00;;;;;21.39;35.19;100995.19;5029676;28;45514;-70
2021/12/03 08:41:23;;;;;;;;;3.00;3.00;;;;;21.38;35.36;100993.50;5030375;28;45436;-70
2021/12/03 08:43:50;;;;;;;;;3.00;3.00;;;;;21.37;35.11;100990.03;5030540;28;45213;-70
2021/12/03 08:46:36;;;;;;;;;4.00;2.75;;;;;21.38;35.37;100990.88;5031467;28;45444;-70
2021/12/03 08:49:28;;;;;;;;;3.25;3.25;;;;;21.37;35.30;100983.91;5028599;27;45402;-70
2021/12/03 08:57:16;;;;;;;;;3.00;3.00;;;;;21.36;35.42;100972.53;5028363;28;45406;-69
2021/12/03 08:59:41;;;;;;;;;5.75;3.75;;;;;21.37;35.12;100971.50;5029596;28;45464;-70
2021/12/03 09:02:07;;;;;;;;;2.50;2.50;;;;;21.38;35.00;100962.59;5029546;28;45237;-70
2021/12/03 09:04:32;;;;;;;;;3.25;3.00;;;;;21.37;35.58;100960.09;5027702;28;45309;-70
2021/12/03 09:06:58;;;;;;;;;2.50;2.50;;;;;21.38;35.33;100953.81;5029536;28;46946;-70
2021/12/03 09:09:25;;;;;;;;;4.25;4.25;;;;;21.39;35.35;100958.13;5028168;28;45523;-69
2021/12/03 09:11:51;;;;;;;;;2.50;2.50;;;;;21.38;35.25;100936.13;5029890;28;45320;-69
2021/12/03 09:14:24;;;;;;;;;2.00;2.00;;;;;21.38;35.08;100938.75;5029595;28;45421;-70
2021/12/03 09:16:58;;;;;;;;;4.00;3.00;;;;;21.40;35.09;100933.28;5029527;28;46924;-69
2021/12/03 09:20:10;;;;;;;;;3.00;3.00;;;;;21.40;34.72;100925.34;5014672;28;45402;-69
2021/12/03 09:22:19;;;;;;;;;4.50;3.00;;;;;21.40;35.42;100925.34;5028371;28;45329;-70
2021/12/03 09:24:44;;;;;;;;;2.25;2.25;;;;;21.40;35.41;100917.41;5032537;28;45500;-70
2021/12/03 09:27:09;;;;;;;;;3.00;3.00;;;;;21.42;34.93;100915.41;5032437;27;45427;-70
2021/12/03 09:29:36;;;;;;;;;2.00;1.50;;;;;21.42;35.43;100902.16;5030835;28;45381;-70
2021/12/03 09:32:02;;;;;;;;;3.50;2.00;;;;;21.40;35.13;100910.28;5032680;28;45510;-70
2021/12/03 09:34:30;;;;;;;;;2.00;2.00;;;;;21.39;35.06;100911.28;5034760;27;45643;-75
2021/12/03 09:36:56;;;;;;;;;4.50;2.25;;;;;21.37;35.18;100921.22;5030854;28;47214;-75
2021/12/03 09:39:23;;;;;;;;;3.50;2.25;;;;;21.40;35.15;100917.41;5032412;27;45877;-75
2021/12/03 09:41:55;;;;;;;;;4.00;3.00;;;;;21.40;35.29;100920.88;5032641;28;45320;-75
2021/12/03 09:44:21;;;;;;;;;1.50;1.00;;;;;21.39;35.43;100929.81;5032132;27;45403;-75
2021/12/03 09:46:48;;;;;;;;;1.75;1.75;;;;;21.39;35.02;100935.09;5015464;28;47242;-75
2021/12/03 09:49:32;;;;;;;;;4.25;2.75;;;;;21.39;34.97;100926.34;5032151;28;45495;-74
2021/12/03 09:54:37;;;;;;;;;2.00;2.00;;;;;21.37;35.06;100912.44;5032462;28;45240;-75
2021/12/03 09:57:30;;;;;;;;;2.00;2.00;;;;;21.40;35.03;100917.41;5032477;27;47273;-75
2021/12/03 10:17:17;;;;;;;;;3.00;1.50;;;;;21.37;35.29;100893.94;5030867;28;45346;-75
2021/12/03 10:19:02;;;;;;;;;2.00;2.00;;;;;21.37;35.33;100897.41;5039095;27;45459;-75
2021/12/03 10:21:46;;;;;;;;;2.00;1.25;;;;;21.37;35.14;100885.97;5031520;27;45309;-75
2021/12/03 10:36:17;;;;;;;;;1.00;1.00;;;;;21.36;35.33;100885.19;5031842;28;45438;-75
2021/12/03 10:41:32;;;;;;;;;2.00;2.00;;;;;21.27;35.59;100855.28;5031672;28;45995;-75
2021/12/03 10:52:36;;;;;;;;;2.00;2.00;;;;;21.35;35.33;100835.88;4943792;28;45369;-75
2021/12/03 10:58:09;;;;;;;;;1.50;1.50;;;;;21.34;35.52;100828.13;4947286;28;45462;-75
2021/12/03 11:01:16;;;;;;;;;2.00;2.00;;;;;21.33;35.56;100808.78;4952268;28;45455;-75
2021/12/03 12:00:20;;;;;;;;;1.25;1.00;;;;;21.33;36.34;100689.69;5006001;27;45800;-73
2021/12/03 13:25:16;;;;;;;;;1.75;1.75;;;;;21.39;36.75;100555.81;5053472;28;45768;-74
2021/12/03 14:45:35;;;;;;;;;1.00;1.00;;;;;21.32;36.70;100431.34;5031552;28;45558;-74
2021/12/03 14:56:05;;;;;;;;;0.00;0.00;;;;;21.30;36.32;100422.78;5031754;27;45633;-74
2021/12/03 15:01:51;;;;;;;;;1.00;1.00;;;;;21.29;36.28;100427.25;5032489;28;46049;-74
2021/12/03 15:09:32;;;;;;;;;1.00;1.00;;;;;21.24;36.23;100431.44;5031264;27;45423;-74
2021/12/03 15:22:47;;;;;;;;;0.00;0.00;;;;;21.24;36.23;100403.16;5032866;28;46203;-74
2021/12/03 15:25:24;;;;;;;;;1.00;1.00;;;;;21.25;36.40;100401.34;5032582;28;45543;-74
2021/12/03 15:28:02;;;;;;;;;1.00;1.00;;;;;21.23;36.33;100390.97;5028938;28;45360;-74
2021/12/03 15:57:55;;;;;;;;;0.50;0.50;;;;;21.21;36.68;100337.38;5034908;27;45477;-75
2021/12/03 16:06:08;;;;;;;;;0.25;0.25;;;;;21.21;36.52;100324.16;5060813;27;45462;-70
2021/12/03 16:08:30;;;;;;;;;3.00;1.00;;;;;21.21;36.92;100310.13;5057353;28;45363;-70
2021/12/03 16:18:52;;;;;;;;;1.00;1.00;;;;;21.22;36.58;100306.47;5072976;28;45485;-70
2021/12/03 16:45:36;;;;;;;;;1.00;0.00;;;;;21.16;37.01;100273.63;5035351;28;45506;-70
2021/12/03 16:53:31;;;;;;;;;0.75;0.75;;;;;21.13;36.79;100266.09;5036854;28;45307;-70
2021/12/03 16:56:01;;;;;;;;;1.00;1.00;;;;;21.13;37.05;100266.91;5037169;28;45244;-70
2021/12/03 16:58:30;;;;;;;;;0.00;0.00;;;;;21.12;37.02;100264.47;5037773;28;46242;-70
2021/12/03 17:48:58;;;;;;;;;2.00;1.00;;;;;21.12;36.78;100174.53;5078227;27;45293;-70
2021/12/03 17:56:53;;;;;;;;;1.00;1.00;;;;;21.14;37.17;100165.38;5078323;27;45384;-70
2021/12/03 17:59:22;;;;;;;;;0.75;0.75;;;;;21.12;37.27;100162.13;5074804;27;45595;-70
2021/12/03 18:02:02;;;;;;;;;0.00;0.00;;;;;21.15;36.78;100166.22;5015182;27;46177;-70
2021/12/03 18:53:48;;;;;;;;;1.00;1.00;;;;;21.10;36.89;100118.34;5027237;28;45303;-70
2021/12/03 18:56:23;;;;;;;;;0.25;0.25;;;;;21.11;36.99;100107.56;5014978;28;46675;-70
2021/12/03 18:58:57;;;;;;;;;1.00;1.00;;;;;21.09;37.28;100104.31;5030478;28;45501;-70
2021/12/03 19:01:27;;;;;;;;;1.25;1.25;;;;;21.12;37.06;100103.94;5018890;28;45548;-70
2021/12/03 19:06:48;;;;;;;;;0.00;0.00;;;;;21.12;36.89;100103.09;5027854;28;45504;-70
2021/12/03 19:09:22;;;;;;;;;0.00;0.00;;;;;21.13;36.86;100104.75;5027913;28;45507;-69
2021/12/03 19:11:57;;;;;;;;;0.00;0.00;;;;;21.13;37.27;100088.88;5027551;28;45447;-70
2021/12/03 19:14:23;;;;;;;;;0.00;0.00;;;;;21.13;37.11;100087.03;5030774;28;45525;-70
2021/12/03 19:16:49;;;;;;;;;1.00;1.00;;;;;21.10;37.05;100079.50;5030306;28;46190;-70
2021/12/03 19:19:16;;;;;;;;;1.00;1.00;;;;;21.13;36.96;100076.44;5028907;28;45371;-70